International Virtual Aviation Organisation

Russian Federation and Kazakhstan MCD

 

Карточка аэропорта URWI

Внимание!
Информация на этой странице в стадии наполнения.
Если вы не увидели какой-то информации, или заметили неточность - пожалуйста сообщите нам!
Спасибо!
Команда RU-STAFF
Название аэропортаЭлиста
Название аэропорта (англ.)Elista
Превышение502 ft. (153 m.)
Координаты46°22.476', 44°19.428'
Высота перехода900
Эшелон перехода050
Коды ответчика1000
Зона ОрВДРостов-на-Дону РПИ (URRV)
Данные METARURWI 131100Z 10008MPS 0150 R09/0150N FZFG VV001 M00/M00 Q1018 R09/190055 NOSIG RMK QBB050 OBST OBSC
Проноз погоды (TAF)NODATA
NOTAMshow/hide NOTAM
AWOS   TABLE

Информация о ВПП

ВПП Длина ВПП (м.) Покрытие Курс ВПП Частота ILS
093200Асфальтобетон90108.5
273200Асфальтобетон270 

Диспетчерские позиции




Спутниковое изображение